sensor_id;sensor_type;location;lat;lon;timestamp;P1;durP1;ratioP1;P2;durP2;ratioP2
43146;SDS011;28752;48.266;7.402;2023-02-28T00:00:23;7.68;;;3.65;;
43146;SDS011;28752;48.266;7.402;2023-02-28T00:02:48;6.93;;;3.42;;
43146;SDS011;28752;48.266;7.402;2023-02-28T00:05:15;6.40;;;3.13;;
43146;SDS011;28752;48.266;7.402;2023-02-28T00:07:42;5.95;;;3.40;;
43146;SDS011;28752;48.266;7.402;2023-02-28T00:10:09;6.32;;;3.63;;
43146;SDS011;28752;48.266;7.402;2023-02-28T00:12:36;10.05;;;3.58;;
43146;SDS011;28752;48.266;7.402;2023-02-28T00:17:34;5.70;;;3.10;;
43146;SDS011;28752;48.266;7.402;2023-02-28T00:20:00;5.63;;;3.17;;
43146;SDS011;28752;48.266;7.402;2023-02-28T00:22:29;6.13;;;3.22;;
43146;SDS011;28752;48.266;7.402;2023-02-28T00:24:55;7.55;;;3.17;;
43146;SDS011;28752;48.266;7.402;2023-02-28T00:27:20;7.40;;;3.70;;
43146;SDS011;28752;48.266;7.402;2023-02-28T00:29:46;5.80;;;3.40;;
43146;SDS011;28752;48.266;7.402;2023-02-28T00:32:12;9.48;;;3.08;;
43146;SDS011;28752;48.266;7.402;2023-02-28T00:34:37;7.13;;;2.87;;
43146;SDS011;28752;48.266;7.402;2023-02-28T00:37:05;6.57;;;2.90;;
43146;SDS011;28752;48.266;7.402;2023-02-28T00:39:33;7.13;;;3.00;;
43146;SDS011;28752;48.266;7.402;2023-02-28T00:42:00;5.18;;;3.08;;
43146;SDS011;28752;48.266;7.402;2023-02-28T00:44:25;6.27;;;2.77;;
43146;SDS011;28752;48.266;7.402;2023-02-28T00:46:50;5.83;;;3.07;;
43146;SDS011;28752;48.266;7.402;2023-02-28T00:49:16;8.27;;;2.85;;
43146;SDS011;28752;48.266;7.402;2023-02-28T00:51:42;4.70;;;3.10;;
43146;SDS011;28752;48.266;7.402;2023-02-28T00:54:07;5.67;;;2.83;;
43146;SDS011;28752;48.266;7.402;2023-02-28T00:56:33;6.60;;;3.20;;
43146;SDS011;28752;48.266;7.402;2023-02-28T00:58:58;5.17;;;2.93;;
43146;SDS011;28752;48.266;7.402;2023-02-28T01:01:24;6.03;;;3.30;;
43146;SDS011;28752;48.266;7.402;2023-02-28T01:03:49;6.33;;;3.23;;
43146;SDS011;28752;48.266;7.402;2023-02-28T01:06:14;8.07;;;3.33;;
43146;SDS011;28752;48.266;7.402;2023-02-28T01:08:40;6.50;;;3.00;;
43146;SDS011;28752;48.266;7.402;2023-02-28T01:11:12;8.25;;;3.28;;
43146;SDS011;28752;48.266;7.402;2023-02-28T01:13:40;4.90;;;2.90;;
43146;SDS011;28752;48.266;7.402;2023-02-28T01:16:07;7.07;;;3.42;;
43146;SDS011;28752;48.266;7.402;2023-02-28T01:18:32;5.07;;;2.92;;
43146;SDS011;28752;48.266;7.402;2023-02-28T01:20:58;7.60;;;3.27;;
43146;SDS011;28752;48.266;7.402;2023-02-28T01:23:27;5.57;;;2.80;;
43146;SDS011;28752;48.266;7.402;2023-02-28T01:25:53;6.53;;;4.07;;
43146;SDS011;28752;48.266;7.402;2023-02-28T01:28:18;6.33;;;2.93;;
43146;SDS011;28752;48.266;7.402;2023-02-28T01:30:47;7.63;;;3.07;;
43146;SDS011;28752;48.266;7.402;2023-02-28T01:33:13;5.63;;;3.10;;
43146;SDS011;28752;48.266;7.402;2023-02-28T01:35:38;7.40;;;3.27;;
43146;SDS011;28752;48.266;7.402;2023-02-28T01:38:04;8.73;;;3.70;;
43146;SDS011;28752;48.266;7.402;2023-02-28T01:40:29;6.20;;;3.87;;
43146;SDS011;28752;48.266;7.402;2023-02-28T01:42:54;5.73;;;3.20;;
43146;SDS011;28752;48.266;7.402;2023-02-28T01:47:45;6.50;;;3.40;;
43146;SDS011;28752;48.266;7.402;2023-02-28T01:50:16;7.03;;;3.17;;
43146;SDS011;28752;48.266;7.402;2023-02-28T01:52:45;7.00;;;3.40;;
43146;SDS011;28752;48.266;7.402;2023-02-28T01:55:13;6.25;;;3.33;;
43146;SDS011;28752;48.266;7.402;2023-02-28T01:57:51;6.15;;;3.38;;
43146;SDS011;28752;48.266;7.402;2023-02-28T02:00:20;6.40;;;3.75;;
43146;SDS011;28752;48.266;7.402;2023-02-28T02:02:49;6.82;;;3.15;;
43146;SDS011;28752;48.266;7.402;2023-02-28T02:05:27;7.38;;;3.53;;
43146;SDS011;28752;48.266;7.402;2023-02-28T02:07:56;7.32;;;4.00;;
43146;SDS011;28752;48.266;7.402;2023-02-28T02:10:29;6.68;;;3.53;;
43146;SDS011;28752;48.266;7.402;2023-02-28T02:27:20;5.68;;;3.60;;
43146;SDS011;28752;48.266;7.402;2023-02-28T02:29:59;6.32;;;3.20;;
43146;SDS011;28752;48.266;7.402;2023-02-28T02:44:07;6.05;;;3.25;;
43146;SDS011;28752;48.266;7.402;2023-02-28T02:46:44;7.13;;;3.75;;
43146;SDS011;28752;48.266;7.402;2023-02-28T02:49:12;8.80;;;3.60;;
43146;SDS011;28752;48.266;7.402;2023-02-28T02:51:43;7.63;;;3.72;;
43146;SDS011;28752;48.266;7.402;2023-02-28T02:54:12;7.57;;;3.53;;
43146;SDS011;28752;48.266;7.402;2023-02-28T02:56:42;7.38;;;3.72;;
43146;SDS011;28752;48.266;7.402;2023-02-28T02:59:11;6.88;;;3.90;;
43146;SDS011;28752;48.266;7.402;2023-02-28T03:01:40;8.07;;;4.20;;
43146;SDS011;28752;48.266;7.402;2023-02-28T03:04:11;8.48;;;3.95;;
43146;SDS011;28752;48.266;7.402;2023-02-28T03:06:40;6.38;;;4.13;;
43146;SDS011;28752;48.266;7.402;2023-02-28T03:09:06;6.83;;;4.37;;
43146;SDS011;28752;48.266;7.402;2023-02-28T03:11:31;7.17;;;3.97;;
43146;SDS011;28752;48.266;7.402;2023-02-28T03:14:05;8.27;;;4.30;;
43146;SDS011;28752;48.266;7.402;2023-02-28T03:17:00;7.72;;;4.05;;
43146;SDS011;28752;48.266;7.402;2023-02-28T03:19:33;6.57;;;3.97;;
43146;SDS011;28752;48.266;7.402;2023-02-28T03:24:45;7.47;;;4.15;;
43146;SDS011;28752;48.266;7.402;2023-02-28T03:27:27;8.43;;;4.20;;
43146;SDS011;28752;48.266;7.402;2023-02-28T03:32:33;7.38;;;4.47;;
43146;SDS011;28752;48.266;7.402;2023-02-28T03:35:14;9.60;;;5.40;;
43146;SDS011;28752;48.266;7.402;2023-02-28T03:37:46;7.63;;;4.43;;
43146;SDS011;28752;48.266;7.402;2023-02-28T03:40:21;16.00;;;8.10;;
43146;SDS011;28752;48.266;7.402;2023-02-28T03:42:52;10.38;;;5.80;;
43146;SDS011;28752;48.266;7.402;2023-02-28T03:45:25;11.73;;;6.85;;
43146;SDS011;28752;48.266;7.402;2023-02-28T03:47:57;8.48;;;4.78;;
43146;SDS011;28752;48.266;7.402;2023-02-28T03:50:29;18.73;;;8.13;;
43146;SDS011;28752;48.266;7.402;2023-02-28T03:53:12;9.05;;;4.80;;
43146;SDS011;28752;48.266;7.402;2023-02-28T03:55:46;8.63;;;4.10;;
43146;SDS011;28752;48.266;7.402;2023-02-28T04:00:45;67.53;;;27.95;;
43146;SDS011;28752;48.266;7.402;2023-02-28T04:03:14;13.43;;;7.15;;
43146;SDS011;28752;48.266;7.402;2023-02-28T04:05:53;9.05;;;4.90;;
43146;SDS011;28752;48.266;7.402;2023-02-28T04:08:21;8.93;;;4.90;;
43146;SDS011;28752;48.266;7.402;2023-02-28T04:10:49;8.20;;;4.18;;
43146;SDS011;28752;48.266;7.402;2023-02-28T04:13:19;8.32;;;4.80;;
43146;SDS011;28752;48.266;7.402;2023-02-28T04:15:44;8.17;;;4.40;;
43146;SDS011;28752;48.266;7.402;2023-02-28T04:18:10;7.30;;;4.47;;
43146;SDS011;28752;48.266;7.402;2023-02-28T04:20:35;7.63;;;4.30;;
43146;SDS011;28752;48.266;7.402;2023-02-28T04:23:01;7.47;;;4.47;;
43146;SDS011;28752;48.266;7.402;2023-02-28T04:25:26;9.27;;;4.60;;
43146;SDS011;28752;48.266;7.402;2023-02-28T04:27:51;7.00;;;4.27;;
43146;SDS011;28752;48.266;7.402;2023-02-28T04:30:17;7.10;;;3.87;;
43146;SDS011;28752;48.266;7.402;2023-02-28T04:32:42;7.93;;;4.60;;
43146;SDS011;28752;48.266;7.402;2023-02-28T04:35:08;7.87;;;4.83;;
43146;SDS011;28752;48.266;7.402;2023-02-28T04:37:33;7.63;;;4.70;;
43146;SDS011;28752;48.266;7.402;2023-02-28T04:40:00;9.00;;;4.70;;
43146;SDS011;28752;48.266;7.402;2023-02-28T04:42:25;7.53;;;4.95;;
43146;SDS011;28752;48.266;7.402;2023-02-28T04:44:51;7.70;;;4.60;;
43146;SDS011;28752;48.266;7.402;2023-02-28T04:47:17;7.65;;;4.78;;
43146;SDS011;28752;48.266;7.402;2023-02-28T04:49:42;9.10;;;5.07;;
43146;SDS011;28752;48.266;7.402;2023-02-28T04:52:07;7.77;;;5.07;;
43146;SDS011;28752;48.266;7.402;2023-02-28T04:54:34;7.78;;;4.25;;
43146;SDS011;28752;48.266;7.402;2023-02-28T04:57:00;7.67;;;4.70;;
43146;SDS011;28752;48.266;7.402;2023-02-28T04:59:26;8.15;;;4.85;;
43146;SDS011;28752;48.266;7.402;2023-02-28T05:01:52;6.63;;;4.45;;
43146;SDS011;28752;48.266;7.402;2023-02-28T05:04:17;7.37;;;4.83;;
43146;SDS011;28752;48.266;7.402;2023-02-28T05:06:43;8.57;;;5.22;;
43146;SDS011;28752;48.266;7.402;2023-02-28T05:09:08;9.10;;;5.47;;
43146;SDS011;28752;48.266;7.402;2023-02-28T05:11:36;10.35;;;5.20;;
43146;SDS011;28752;48.266;7.402;2023-02-28T05:14:06;8.68;;;5.20;;
43146;SDS011;28752;48.266;7.402;2023-02-28T05:16:35;9.30;;;4.93;;
43146;SDS011;28752;48.266;7.402;2023-02-28T05:19:00;8.10;;;5.30;;
43146;SDS011;28752;48.266;7.402;2023-02-28T05:21:28;8.40;;;4.88;;
43146;SDS011;28752;48.266;7.402;2023-02-28T05:23:57;10.45;;;5.50;;
43146;SDS011;28752;48.266;7.402;2023-02-28T05:26:24;9.40;;;4.82;;
43146;SDS011;28752;48.266;7.402;2023-02-28T05:28:50;8.07;;;5.07;;
43146;SDS011;28752;48.266;7.402;2023-02-28T05:31:15;6.90;;;4.90;;
43146;SDS011;28752;48.266;7.402;2023-02-28T05:33:41;9.33;;;5.50;;
43146;SDS011;28752;48.266;7.402;2023-02-28T05:36:06;8.73;;;5.00;;
43146;SDS011;28752;48.266;7.402;2023-02-28T05:38:32;8.00;;;4.72;;
43146;SDS011;28752;48.266;7.402;2023-02-28T05:40:58;8.13;;;4.97;;
43146;SDS011;28752;48.266;7.402;2023-02-28T05:43:23;9.10;;;5.40;;
43146;SDS011;28752;48.266;7.402;2023-02-28T05:45:48;8.88;;;5.22;;
43146;SDS011;28752;48.266;7.402;2023-02-28T05:48:14;8.23;;;5.30;;
43146;SDS011;28752;48.266;7.402;2023-02-28T05:50:39;8.63;;;5.13;;
43146;SDS011;28752;48.266;7.402;2023-02-28T05:53:05;9.30;;;5.68;;
43146;SDS011;28752;48.266;7.402;2023-02-28T05:55:31;11.57;;;6.13;;
43146;SDS011;28752;48.266;7.402;2023-02-28T05:57:56;10.53;;;6.13;;
43146;SDS011;28752;48.266;7.402;2023-02-28T06:00:22;11.00;;;5.73;;
43146;SDS011;28752;48.266;7.402;2023-02-28T06:02:47;10.18;;;5.63;;
43146;SDS011;28752;48.266;7.402;2023-02-28T06:05:14;10.55;;;5.93;;
43146;SDS011;28752;48.266;7.402;2023-02-28T06:07:41;11.55;;;6.72;;
43146;SDS011;28752;48.266;7.402;2023-02-28T06:10:07;13.85;;;8.30;;
43146;SDS011;28752;48.266;7.402;2023-02-28T06:12:34;10.68;;;6.20;;
43146;SDS011;28752;48.266;7.402;2023-02-28T06:14:59;8.53;;;5.73;;
43146;SDS011;28752;48.266;7.402;2023-02-28T06:17:25;12.33;;;6.03;;
43146;SDS011;28752;48.266;7.402;2023-02-28T06:19:50;10.70;;;6.60;;
43146;SDS011;28752;48.266;7.402;2023-02-28T06:22:15;10.97;;;5.97;;
43146;SDS011;28752;48.266;7.402;2023-02-28T06:24:41;11.00;;;6.20;;
43146;SDS011;28752;48.266;7.402;2023-02-28T06:27:06;9.60;;;6.33;;
43146;SDS011;28752;48.266;7.402;2023-02-28T06:29:32;11.03;;;6.53;;
43146;SDS011;28752;48.266;7.402;2023-02-28T06:31:59;9.55;;;5.85;;
43146;SDS011;28752;48.266;7.402;2023-02-28T06:34:24;11.65;;;6.95;;
43146;SDS011;28752;48.266;7.402;2023-02-28T06:36:50;12.83;;;6.67;;
43146;SDS011;28752;48.266;7.402;2023-02-28T06:39:16;14.60;;;8.02;;
43146;SDS011;28752;48.266;7.402;2023-02-28T06:41:41;12.80;;;7.47;;
43146;SDS011;28752;48.266;7.402;2023-02-28T06:44:13;13.63;;;7.37;;
43146;SDS011;28752;48.266;7.402;2023-02-28T06:46:41;12.23;;;7.00;;
43146;SDS011;28752;48.266;7.402;2023-02-28T06:49:07;12.00;;;6.75;;
43146;SDS011;28752;48.266;7.402;2023-02-28T06:51:34;10.27;;;6.47;;
43146;SDS011;28752;48.266;7.402;2023-02-28T06:56:25;12.52;;;7.20;;
43146;SDS011;28752;48.266;7.402;2023-02-28T06:58:50;9.00;;;5.97;;
43146;SDS011;28752;48.266;7.402;2023-02-28T07:01:17;13.10;;;7.18;;
43146;SDS011;28752;48.266;7.402;2023-02-28T07:03:44;13.30;;;7.47;;
43146;SDS011;28752;48.266;7.402;2023-02-28T07:06:10;13.70;;;7.68;;
43146;SDS011;28752;48.266;7.402;2023-02-28T07:08:35;15.37;;;7.90;;
43146;SDS011;28752;48.266;7.402;2023-02-28T07:11:05;12.82;;;8.00;;
43146;SDS011;28752;48.266;7.402;2023-02-28T07:13:30;13.57;;;7.70;;
43146;SDS011;28752;48.266;7.402;2023-02-28T07:15:57;13.18;;;7.53;;
43146;SDS011;28752;48.266;7.402;2023-02-28T07:18:24;22.38;;;10.80;;
43146;SDS011;28752;48.266;7.402;2023-02-28T07:20:50;17.15;;;9.00;;
43146;SDS011;28752;48.266;7.402;2023-02-28T07:23:16;22.52;;;11.55;;
43146;SDS011;28752;48.266;7.402;2023-02-28T07:25:42;33.42;;;18.88;;
43146;SDS011;28752;48.266;7.402;2023-02-28T07:28:07;23.40;;;13.27;;
43146;SDS011;28752;48.266;7.402;2023-02-28T07:30:32;13.03;;;7.47;;
43146;SDS011;28752;48.266;7.402;2023-02-28T07:32:58;22.80;;;9.98;;
43146;SDS011;28752;48.266;7.402;2023-02-28T07:35:24;13.43;;;7.43;;
43146;SDS011;28752;48.266;7.402;2023-02-28T07:37:49;19.60;;;10.00;;
43146;SDS011;28752;48.266;7.402;2023-02-28T07:40:15;18.43;;;8.57;;
43146;SDS011;28752;48.266;7.402;2023-02-28T07:42:43;16.13;;;8.38;;
43146;SDS011;28752;48.266;7.402;2023-02-28T07:45:09;11.48;;;7.07;;
43146;SDS011;28752;48.266;7.402;2023-02-28T07:47:36;14.82;;;8.32;;
43146;SDS011;28752;48.266;7.402;2023-02-28T07:50:03;18.02;;;7.57;;
43146;SDS011;28752;48.266;7.402;2023-02-28T07:52:28;11.05;;;6.95;;
43146;SDS011;28752;48.266;7.402;2023-02-28T07:54:54;12.37;;;7.30;;
43146;SDS011;28752;48.266;7.402;2023-02-28T07:57:19;16.20;;;7.93;;
43146;SDS011;28752;48.266;7.402;2023-02-28T07:59:44;14.13;;;8.50;;
43146;SDS011;28752;48.266;7.402;2023-02-28T08:02:13;11.80;;;6.80;;
43146;SDS011;28752;48.266;7.402;2023-02-28T08:04:43;10.40;;;6.10;;
43146;SDS011;28752;48.266;7.402;2023-02-28T08:07:09;15.90;;;8.13;;
43146;SDS011;28752;48.266;7.402;2023-02-28T08:09:38;13.60;;;7.60;;
43146;SDS011;28752;48.266;7.402;2023-02-28T08:12:03;13.30;;;6.95;;
43146;SDS011;28752;48.266;7.402;2023-02-28T08:14:29;16.58;;;8.23;;
43146;SDS011;28752;48.266;7.402;2023-02-28T08:16:55;14.10;;;8.00;;
43146;SDS011;28752;48.266;7.402;2023-02-28T08:19:20;12.83;;;7.53;;
43146;SDS011;28752;48.266;7.402;2023-02-28T08:21:45;12.53;;;7.60;;
43146;SDS011;28752;48.266;7.402;2023-02-28T08:24:11;13.17;;;7.83;;
43146;SDS011;28752;48.266;7.402;2023-02-28T08:26:36;13.00;;;7.53;;
43146;SDS011;28752;48.266;7.402;2023-02-28T08:29:01;14.17;;;7.80;;
43146;SDS011;28752;48.266;7.402;2023-02-28T08:31:27;13.37;;;7.43;;
43146;SDS011;28752;48.266;7.402;2023-02-28T08:33:52;14.07;;;8.23;;
43146;SDS011;28752;48.266;7.402;2023-02-28T08:36:20;14.20;;;7.93;;
43146;SDS011;28752;48.266;7.402;2023-02-28T08:38:46;13.93;;;7.60;;
43146;SDS011;28752;48.266;7.402;2023-02-28T08:41:11;12.93;;;7.73;;
43146;SDS011;28752;48.266;7.402;2023-02-28T08:43:38;16.02;;;7.70;;
43146;SDS011;28752;48.266;7.402;2023-02-28T08:46:05;15.45;;;7.95;;
43146;SDS011;28752;48.266;7.402;2023-02-28T08:48:32;12.70;;;7.75;;
43146;SDS011;28752;48.266;7.402;2023-02-28T08:51:02;14.38;;;8.02;;
43146;SDS011;28752;48.266;7.402;2023-02-28T08:53:32;13.00;;;8.27;;
43146;SDS011;28752;48.266;7.402;2023-02-28T08:55:58;16.07;;;8.00;;
43146;SDS011;28752;48.266;7.402;2023-02-28T08:58:30;16.95;;;9.25;;
43146;SDS011;28752;48.266;7.402;2023-02-28T09:00:56;17.42;;;9.23;;
43146;SDS011;28752;48.266;7.402;2023-02-28T09:03:21;14.82;;;9.20;;
43146;SDS011;28752;48.266;7.402;2023-02-28T09:08:17;16.58;;;8.52;;
43146;SDS011;28752;48.266;7.402;2023-02-28T09:10:42;13.50;;;8.63;;
43146;SDS011;28752;48.266;7.402;2023-02-28T09:13:07;13.70;;;7.87;;
43146;SDS011;28752;48.266;7.402;2023-02-28T09:15:32;14.00;;;8.73;;
43146;SDS011;28752;48.266;7.402;2023-02-28T09:17:58;14.33;;;8.30;;
43146;SDS011;28752;48.266;7.402;2023-02-28T09:20:23;14.60;;;8.87;;
43146;SDS011;28752;48.266;7.402;2023-02-28T09:22:48;15.47;;;9.13;;
43146;SDS011;28752;48.266;7.402;2023-02-28T09:25:14;17.77;;;10.20;;
43146;SDS011;28752;48.266;7.402;2023-02-28T09:27:39;18.13;;;10.43;;
43146;SDS011;28752;48.266;7.402;2023-02-28T09:30:05;16.33;;;9.53;;
43146;SDS011;28752;48.266;7.402;2023-02-28T09:32:30;23.65;;;13.75;;
43146;SDS011;28752;48.266;7.402;2023-02-28T09:34:56;21.33;;;10.80;;
43146;SDS011;28752;48.266;7.402;2023-02-28T09:37:21;16.63;;;10.03;;
43146;SDS011;28752;48.266;7.402;2023-02-28T09:39:47;18.03;;;10.30;;
43146;SDS011;28752;48.266;7.402;2023-02-28T09:42:21;15.07;;;8.80;;
43146;SDS011;28752;48.266;7.402;2023-02-28T09:44:51;15.48;;;9.52;;
43146;SDS011;28752;48.266;7.402;2023-02-28T09:52:50;17.77;;;9.30;;
43146;SDS011;28752;48.266;7.402;2023-02-28T09:58:04;16.88;;;8.05;;
43146;SDS011;28752;48.266;7.402;2023-02-28T10:00:34;20.73;;;9.55;;
43146;SDS011;28752;48.266;7.402;2023-02-28T10:05:52;17.85;;;10.00;;
43146;SDS011;28752;48.266;7.402;2023-02-28T10:08:25;14.83;;;8.70;;
43146;SDS011;28752;48.266;7.402;2023-02-28T10:10:58;13.95;;;7.80;;
43146;SDS011;28752;48.266;7.402;2023-02-28T10:16:09;12.88;;;8.43;;
43146;SDS011;28752;48.266;7.402;2023-02-28T10:23:52;14.85;;;8.90;;
43146;SDS011;28752;48.266;7.402;2023-02-28T10:26:27;16.38;;;9.30;;
43146;SDS011;28752;48.266;7.402;2023-02-28T10:28:55;18.88;;;10.35;;
43146;SDS011;28752;48.266;7.402;2023-02-28T10:31:21;13.77;;;8.30;;
43146;SDS011;28752;48.266;7.402;2023-02-28T10:33:46;14.57;;;8.63;;
43146;SDS011;28752;48.266;7.402;2023-02-28T10:36:16;12.23;;;8.30;;
43146;SDS011;28752;48.266;7.402;2023-02-28T10:38:44;13.55;;;8.40;;
43146;SDS011;28752;48.266;7.402;2023-02-28T10:41:11;13.82;;;8.35;;
43146;SDS011;28752;48.266;7.402;2023-02-28T10:44:17;14.63;;;8.90;;
43146;SDS011;28752;48.266;7.402;2023-02-28T10:46:46;12.93;;;8.55;;
43146;SDS011;28752;48.266;7.402;2023-02-28T10:49:23;13.88;;;8.80;;
43146;SDS011;28752;48.266;7.402;2023-02-28T10:51:52;16.20;;;9.52;;
43146;SDS011;28752;48.266;7.402;2023-02-28T10:54:23;18.70;;;10.48;;
43146;SDS011;28752;48.266;7.402;2023-02-28T10:57:11;17.98;;;10.55;;
43146;SDS011;28752;48.266;7.402;2023-02-28T10:59:44;14.27;;;9.23;;
43146;SDS011;28752;48.266;7.402;2023-02-28T11:02:29;16.30;;;9.48;;
43146;SDS011;28752;48.266;7.402;2023-02-28T11:04:59;16.85;;;10.13;;
43146;SDS011;28752;48.266;7.402;2023-02-28T11:07:25;17.77;;;10.02;;
43146;SDS011;28752;48.266;7.402;2023-02-28T11:09:54;16.10;;;9.27;;
43146;SDS011;28752;48.266;7.402;2023-02-28T11:12:33;16.77;;;9.88;;
43146;SDS011;28752;48.266;7.402;2023-02-28T11:15:04;15.73;;;10.05;;
43146;SDS011;28752;48.266;7.402;2023-02-28T11:17:59;20.70;;;10.35;;
43146;SDS011;28752;48.266;7.402;2023-02-28T11:20:28;14.88;;;8.98;;
43146;SDS011;28752;48.266;7.402;2023-02-28T11:22:57;14.07;;;9.10;;
43146;SDS011;28752;48.266;7.402;2023-02-28T11:25:29;15.70;;;9.55;;
43146;SDS011;28752;48.266;7.402;2023-02-28T11:27:58;12.10;;;8.30;;
43146;SDS011;28752;48.266;7.402;2023-02-28T11:32:54;14.55;;;8.88;;
43146;SDS011;28752;48.266;7.402;2023-02-28T11:35:28;14.45;;;8.70;;
43146;SDS011;28752;48.266;7.402;2023-02-28T11:37:59;14.40;;;9.10;;
43146;SDS011;28752;48.266;7.402;2023-02-28T11:43:11;16.70;;;8.90;;
43146;SDS011;28752;48.266;7.402;2023-02-28T11:45:55;14.68;;;9.10;;
43146;SDS011;28752;48.266;7.402;2023-02-28T11:48:23;16.50;;;9.75;;
43146;SDS011;28752;48.266;7.402;2023-02-28T11:51:11;18.45;;;9.88;;
43146;SDS011;28752;48.266;7.402;2023-02-28T11:56:23;14.50;;;9.75;;
43146;SDS011;28752;48.266;7.402;2023-02-28T12:18:11;15.75;;;9.98;;
43146;SDS011;28752;48.266;7.402;2023-02-28T12:29:09;15.68;;;9.85;;
43146;SDS011;28752;48.266;7.402;2023-02-28T12:32:11;16.52;;;10.90;;
43146;SDS011;28752;48.266;7.402;2023-02-28T12:34:39;14.95;;;10.00;;
43146;SDS011;28752;48.266;7.402;2023-02-28T12:37:14;15.73;;;10.05;;
43146;SDS011;28752;48.266;7.402;2023-02-28T12:39:46;15.73;;;9.60;;
43146;SDS011;28752;48.266;7.402;2023-02-28T12:42:27;13.77;;;9.35;;
43146;SDS011;28752;48.266;7.402;2023-02-28T12:44:59;16.27;;;9.82;;
43146;SDS011;28752;48.266;7.402;2023-02-28T12:47:28;15.98;;;10.32;;
43146;SDS011;28752;48.266;7.402;2023-02-28T12:49:54;14.70;;;9.57;;
43146;SDS011;28752;48.266;7.402;2023-02-28T12:52:28;13.73;;;8.93;;
43146;SDS011;28752;48.266;7.402;2023-02-28T12:55:21;15.23;;;10.20;;
43146;SDS011;28752;48.266;7.402;2023-02-28T12:58:01;15.70;;;10.18;;
43146;SDS011;28752;48.266;7.402;2023-02-28T13:00:36;15.68;;;10.50;;
43146;SDS011;28752;48.266;7.402;2023-02-28T13:11:25;17.05;;;9.90;;
43146;SDS011;28752;48.266;7.402;2023-02-28T13:13:57;16.67;;;10.63;;
43146;SDS011;28752;48.266;7.402;2023-02-28T13:16:25;15.43;;;9.30;;
43146;SDS011;28752;48.266;7.402;2023-02-28T13:18:51;18.10;;;10.25;;
43146;SDS011;28752;48.266;7.402;2023-02-28T13:26:31;15.80;;;9.98;;
43146;SDS011;28752;48.266;7.402;2023-02-28T13:39:50;15.50;;;10.13;;
43146;SDS011;28752;48.266;7.402;2023-02-28T13:47:30;15.93;;;10.32;;
43146;SDS011;28752;48.266;7.402;2023-02-28T13:50:59;15.02;;;9.93;;
43146;SDS011;28752;48.266;7.402;2023-02-28T14:06:34;17.27;;;11.05;;
43146;SDS011;28752;48.266;7.402;2023-02-28T14:11:37;16.05;;;11.10;;
43146;SDS011;28752;48.266;7.402;2023-02-28T14:14:05;17.10;;;10.90;;
43146;SDS011;28752;48.266;7.402;2023-02-28T14:19:14;17.55;;;10.60;;
43146;SDS011;28752;48.266;7.402;2023-02-28T14:30:29;16.13;;;10.52;;
43146;SDS011;28752;48.266;7.402;2023-02-28T14:33:12;18.02;;;11.07;;
43146;SDS011;28752;48.266;7.402;2023-02-28T14:38:52;16.77;;;11.02;;
43146;SDS011;28752;48.266;7.402;2023-02-28T14:41:21;17.10;;;10.80;;
43146;SDS011;28752;48.266;7.402;2023-02-28T14:44:14;15.98;;;10.77;;
43146;SDS011;28752;48.266;7.402;2023-02-28T14:46:49;15.98;;;10.68;;
43146;SDS011;28752;48.266;7.402;2023-02-28T14:49:21;15.88;;;11.20;;
43146;SDS011;28752;48.266;7.402;2023-02-28T14:54:44;17.15;;;10.73;;
43146;SDS011;28752;48.266;7.402;2023-02-28T14:57:24;17.25;;;10.85;;
43146;SDS011;28752;48.266;7.402;2023-02-28T15:02:42;17.05;;;10.73;;
43146;SDS011;28752;48.266;7.402;2023-02-28T15:07:46;16.77;;;10.27;;
43146;SDS011;28752;48.266;7.402;2023-02-28T15:10:25;18.40;;;10.82;;
43146;SDS011;28752;48.266;7.402;2023-02-28T15:13:02;18.45;;;11.25;;
43146;SDS011;28752;48.266;7.402;2023-02-28T15:18:06;16.50;;;10.73;;
43146;SDS011;28752;48.266;7.402;2023-02-28T15:20:37;17.08;;;11.45;;
43146;SDS011;28752;48.266;7.402;2023-02-28T15:23:04;17.13;;;11.82;;
43146;SDS011;28752;48.266;7.402;2023-02-28T15:25:29;19.02;;;11.88;;
43146;SDS011;28752;48.266;7.402;2023-02-28T15:27:56;17.92;;;11.10;;
43146;SDS011;28752;48.266;7.402;2023-02-28T15:30:31;17.55;;;11.30;;
43146;SDS011;28752;48.266;7.402;2023-02-28T15:35:41;15.30;;;10.63;;
43146;SDS011;28752;48.266;7.402;2023-02-28T15:40:54;18.23;;;11.95;;
43146;SDS011;28752;48.266;7.402;2023-02-28T15:43:28;19.23;;;11.95;;
43146;SDS011;28752;48.266;7.402;2023-02-28T15:48:29;19.02;;;11.95;;
43146;SDS011;28752;48.266;7.402;2023-02-28T15:51:14;20.55;;;12.40;;
43146;SDS011;28752;48.266;7.402;2023-02-28T15:53:59;19.25;;;12.93;;
43146;SDS011;28752;48.266;7.402;2023-02-28T15:58:58;19.88;;;13.32;;
43146;SDS011;28752;48.266;7.402;2023-02-28T16:01:36;20.40;;;12.98;;
43146;SDS011;28752;48.266;7.402;2023-02-28T16:04:04;24.73;;;13.00;;
43146;SDS011;28752;48.266;7.402;2023-02-28T16:06:33;19.85;;;12.88;;
43146;SDS011;28752;48.266;7.402;2023-02-28T16:09:02;18.70;;;13.18;;
43146;SDS011;28752;48.266;7.402;2023-02-28T16:11:28;20.98;;;13.63;;
43146;SDS011;28752;48.266;7.402;2023-02-28T16:13:55;22.50;;;14.50;;
43146;SDS011;28752;48.266;7.402;2023-02-28T16:18:49;22.15;;;14.52;;
43146;SDS011;28752;48.266;7.402;2023-02-28T16:21:15;24.73;;;14.50;;
43146;SDS011;28752;48.266;7.402;2023-02-28T16:23:41;20.20;;;13.30;;
43146;SDS011;28752;48.266;7.402;2023-02-28T16:26:06;18.02;;;12.65;;
43146;SDS011;28752;48.266;7.402;2023-02-28T16:28:37;19.67;;;12.30;;
43146;SDS011;28752;48.266;7.402;2023-02-28T16:31:04;21.38;;;12.85;;
43146;SDS011;28752;48.266;7.402;2023-02-28T16:33:31;17.38;;;12.30;;
43146;SDS011;28752;48.266;7.402;2023-02-28T16:35:57;19.10;;;12.13;;
43146;SDS011;28752;48.266;7.402;2023-02-28T16:38:23;18.23;;;12.20;;
43146;SDS011;28752;48.266;7.402;2023-02-28T16:40:50;17.90;;;12.20;;
43146;SDS011;28752;48.266;7.402;2023-02-28T16:43:19;19.58;;;12.55;;
43146;SDS011;28752;48.266;7.402;2023-02-28T16:45:52;18.92;;;12.27;;
43146;SDS011;28752;48.266;7.402;2023-02-28T16:48:20;18.00;;;12.45;;
43146;SDS011;28752;48.266;7.402;2023-02-28T16:50:45;18.63;;;12.00;;
43146;SDS011;28752;48.266;7.402;2023-02-28T16:53:11;18.57;;;12.43;;
43146;SDS011;28752;48.266;7.402;2023-02-28T16:55:36;18.00;;;12.23;;
43146;SDS011;28752;48.266;7.402;2023-02-28T16:58:02;22.63;;;14.48;;
43146;SDS011;28752;48.266;7.402;2023-02-28T17:00:29;21.00;;;14.25;;
43146;SDS011;28752;48.266;7.402;2023-02-28T17:02:56;20.65;;;13.85;;
43146;SDS011;28752;48.266;7.402;2023-02-28T17:05:22;19.92;;;13.25;;
43146;SDS011;28752;48.266;7.402;2023-02-28T17:07:48;20.33;;;14.13;;
43146;SDS011;28752;48.266;7.402;2023-02-28T17:10:18;27.48;;;16.38;;
43146;SDS011;28752;48.266;7.402;2023-02-28T17:12:47;30.63;;;19.70;;
43146;SDS011;28752;48.266;7.402;2023-02-28T17:15:13;37.57;;;24.57;;
43146;SDS011;28752;48.266;7.402;2023-02-28T17:17:40;35.35;;;24.02;;
43146;SDS011;28752;48.266;7.402;2023-02-28T17:20:06;28.85;;;18.25;;
43146;SDS011;28752;48.266;7.402;2023-02-28T17:22:36;57.25;;;29.02;;
43146;SDS011;28752;48.266;7.402;2023-02-28T17:25:02;40.57;;;21.97;;
43146;SDS011;28752;48.266;7.402;2023-02-28T17:27:27;54.40;;;28.80;;
43146;SDS011;28752;48.266;7.402;2023-02-28T17:29:53;66.47;;;33.60;;
43146;SDS011;28752;48.266;7.402;2023-02-28T17:32:18;36.13;;;22.63;;
43146;SDS011;28752;48.266;7.402;2023-02-28T17:34:44;33.93;;;19.77;;
43146;SDS011;28752;48.266;7.402;2023-02-28T17:37:10;30.52;;;20.10;;
43146;SDS011;28752;48.266;7.402;2023-02-28T17:39:36;30.42;;;17.73;;
43146;SDS011;28752;48.266;7.402;2023-02-28T17:42:02;31.50;;;17.57;;
43146;SDS011;28752;48.266;7.402;2023-02-28T17:44:27;32.77;;;19.90;;
43146;SDS011;28752;48.266;7.402;2023-02-28T17:46:53;30.80;;;18.60;;